KGNC

Gaines County Airport

Seminole, Texas, USA
METAR KGNC 220515Z AUTO 20003KT 10SM CLR 25/15 A3001 RMK AO2 T02520154
Observed Flight Rules
Jun-22 @ 05:15 UTC (27 minutes ago) Visual Flight Rules
Wind Visibility Clouds
200° at 3 knots 10 miles
  • Clear skies
Temperatures Readings
Current 25°C / 77°F
Dewpoint 15°C / 59°F
Humidity 54%
Altimeter 30.01" Hg
Pressure 1016 hPa
Elevation 1010
METAR KGNC 220515Z AUTO 20003KT 10SM CLR 25/15 A3001 RMK AO2 T02520154
Observed Flight Rules
Jun-22 @ 05:15 UTC
(27 minutes ago)
VFR
Wind Visibility
200° at 3 knots 10 miles
Clouds
  • Clear skies
Temperature Dewpoint
25°C / 77°F 15°C / 59°F
Humidity Altimeter Pressure
54% 30.01" Hg 1016 hPa